Time;durP1;ratioP1;P1;durP2;ratioP2;P2;SDS_P1;SDS_P2;PMS_P1;PMS_P2;Temp;Humidity;BMP_temperature;BMP_pressure;BME280_temperature;BME280_humidity;BME280_pressure;Samples;Min_cycle;Max_cycle;Signal;HPM_P1;HPM_P2
2023/06/28 00:00:48;;;;;;;;;;;;;;;28.11;25.72;97975.09;5050600;28;20380;-87
2023/06/28 00:03:14;;;;;;;;;;;;;;;28.08;25.95;97973.97;5043174;28;19921;-87
2023/06/28 00:05:40;;;;;;;;;;;;;;;27.24;26.83;97979.97;5040124;28;19940;-87
2023/06/28 00:08:06;;;;;;;;;;;;;;;27.23;27.09;97978.41;5053096;28;20391;-87
2023/06/28 00:10:32;;;;;;;;;;;;;;;27.37;27.16;97987.19;5039072;28;19927;-87
2023/06/28 00:12:58;;;;;;;;;;;;;;;27.76;26.47;97977.25;5049496;28;19929;-86
2023/06/28 00:15:24;;;;;;;;;;;;;;;27.68;26.43;97973.09;5046954;28;19931;-86
2023/06/28 00:17:50;;;;;;;;;;;;;;;27.79;26.49;97976.31;5044507;28;19958;-87
2023/06/28 00:20:16;;;;;;;;;;;;;;;27.68;26.74;97980.81;5045693;28;19921;-87
2023/06/28 00:22:42;;;;;;;;;;;;;;;27.91;26.47;97978.25;5049428;28;19917;-87
2023/06/28 00:25:08;;;;;;;;;;;;;;;27.98;26.42;97972.31;5043742;28;20347;-87
2023/06/28 00:27:34;;;;;;;;;;;;;;;27.83;26.60;97971.31;5049746;28;19916;-88
2023/06/28 00:30:00;;;;;;;;;;;;;;;28.15;26.53;97966.47;5052884;28;19921;-87
2023/06/28 00:32:27;;;;;;;;;;;;;;;28.41;25.72;97971.44;5047834;28;19991;-88
2023/06/28 00:34:53;;;;;;;;;;;;;;;28.28;26.06;97969.97;5044073;28;19967;-87
2023/06/28 00:37:19;;;;;;;;;;;;;;;28.40;25.74;97966.25;5050226;28;19920;-87
2023/06/28 00:39:45;;;;;;;;;;;;;;;27.90;26.93;97965.41;5044719;28;19928;-87
2023/06/28 00:42:11;;;;;;;;;;;;;;;28.04;26.74;97970.50;5048209;28;19921;-85
2023/06/28 00:44:37;;;;;;;;;;;;;;;27.64;27.16;97963.19;5050782;28;19925;-84
2023/06/28 00:47:04;;;;;;;;;;;;;;;27.54;27.14;97964.41;5043077;28;20286;-86
2023/06/28 00:49:31;;;;;;;;;;;;;;;27.52;27.23;97952.78;5039236;28;19933;-86
2023/06/28 00:51:58;;;;;;;;;;;;;;;27.33;27.58;97960.31;5047577;28;19932;-87
2023/06/28 00:54:24;;;;;;;;;;;;;;;27.67;26.65;97951.00;5053054;28;19921;-87
2023/06/28 00:56:50;;;;;;;;;;;;;;;27.26;27.53;97960.56;5047152;28;19940;-86
2023/06/28 00:59:16;;;;;;;;;;;;;;;27.69;26.70;97963.41;5046268;28;20020;-86
2023/06/28 01:01:42;;;;;;;;;;;;;;;27.72;26.78;97964.53;5049311;28;19921;-86
2023/06/28 01:04:09;;;;;;;;;;;;;;;27.73;26.84;97960.44;5042314;28;19927;-87
2023/06/28 01:06:37;;;;;;;;;;;;;;;27.90;26.57;97956.16;5045539;28;19925;-87
2023/06/28 01:09:04;;;;;;;;;;;;;;;28.03;26.29;97956.84;5049569;28;19928;-87
2023/06/28 01:11:31;;;;;;;;;;;;;;;27.96;26.57;97960.72;5046793;28;19931;-86
2023/06/28 01:13:58;;;;;;;;;;;;;;;28.10;26.21;97958.63;5051114;28;19967;-87
2023/06/28 01:16:24;;;;;;;;;;;;;;;28.30;25.94;97959.00;5045760;28;19921;-87
2023/06/28 01:18:50;;;;;;;;;;;;;;;28.47;25.71;97951.84;5051532;28;19925;-87
2023/06/28 01:21:18;;;;;;;;;;;;;;;28.40;25.62;97961.38;5053806;28;20324;-87
2023/06/28 01:23:45;;;;;;;;;;;;;;;27.99;26.23;97959.81;5050637;28;20384;-87
2023/06/28 01:26:11;;;;;;;;;;;;;;;27.77;26.73;97953.41;5051323;28;19928;-86
2023/06/28 01:28:37;;;;;;;;;;;;;;;27.76;26.64;97956.69;5056640;28;20380;-86
2023/06/28 01:31:04;;;;;;;;;;;;;;;27.81;26.42;97950.47;5054477;28;19921;-86
2023/06/28 01:33:30;;;;;;;;;;;;;;;28.00;26.10;97952.94;5056807;28;19921;-86
2023/06/28 01:35:57;;;;;;;;;;;;;;;28.32;25.82;97959.31;5045017;28;20279;-86
2023/06/28 01:38:23;;;;;;;;;;;;;;;28.46;25.45;97950.25;5056891;28;19960;-85
2023/06/28 01:40:51;;;;;;;;;;;;;;;28.44;25.44;97952.75;5056611;28;20414;-86
2023/06/28 01:43:17;;;;;;;;;;;;;;;28.44;25.52;97958.41;5052772;28;19917;-86
2023/06/28 01:45:43;;;;;;;;;;;;;;;28.25;25.28;97957.56;5056898;28;20303;-85
2023/06/28 01:48:09;;;;;;;;;;;;;;;28.00;25.66;97954.97;5055185;28;19924;-87
2023/06/28 01:50:35;;;;;;;;;;;;;;;27.74;26.13;97959.19;5044095;28;19921;-86
2023/06/28 01:53:02;;;;;;;;;;;;;;;27.75;26.06;97952.31;5051951;28;19920;-85
2023/06/28 01:55:29;;;;;;;;;;;;;;;27.59;26.39;97956.13;5051490;28;19960;-85
2023/06/28 01:57:55;;;;;;;;;;;;;;;27.74;26.57;97962.00;5050852;28;19927;-85
2023/06/28 02:00:21;;;;;;;;;;;;;;;27.63;26.67;97956.81;5041646;28;19950;-85
2023/06/28 02:02:47;;;;;;;;;;;;;;;27.89;26.41;97960.22;5052568;28;20308;-84
2023/06/28 02:05:13;;;;;;;;;;;;;;;27.86;25.95;97964.75;5051895;28;19920;-85
2023/06/28 02:07:39;;;;;;;;;;;;;;;27.76;26.07;97959.50;5049585;28;19936;-84
2023/06/28 02:10:06;;;;;;;;;;;;;;;27.87;25.51;97959.88;5037487;28;19921;-84
2023/06/28 02:12:32;;;;;;;;;;;;;;;27.76;26.02;97960.31;5045002;28;19927;-86
2023/06/28 02:15:02;;;;;;;;;;;;;;;27.78;25.84;97948.56;5042122;28;20015;-85
2023/06/28 02:17:31;;;;;;;;;;;;;;;27.46;26.08;97954.63;5049844;28;20059;-85
2023/06/28 02:19:57;;;;;;;;;;;;;;;27.36;26.64;97960.19;5043588;28;19936;-85
2023/06/28 02:22:25;;;;;;;;;;;;;;;27.77;26.12;97961.88;5040372;28;19921;-85
2023/06/28 02:24:51;;;;;;;;;;;;;;;27.53;26.01;97954.38;5043611;28;20380;-85
2023/06/28 02:27:17;;;;;;;;;;;;;;;27.63;26.16;97959.63;5043877;28;19947;-85
2023/06/28 02:29:43;;;;;;;;;;;;;;;27.58;25.99;97962.25;5040501;28;19920;-85
2023/06/28 02:32:09;;;;;;;;;;;;;;;27.50;25.97;97956.06;5044632;28;19974;-84
2023/06/28 02:34:35;;;;;;;;;;;;;;;27.58;25.96;97959.41;5041012;28;19928;-85
2023/06/28 02:37:01;;;;;;;;;;;;;;;27.62;26.00;97957.25;5045714;28;20332;-84
2023/06/28 02:39:27;;;;;;;;;;;;;;;27.72;25.84;97956.84;5047554;28;19927;-84
2023/06/28 02:41:55;;;;;;;;;;;;;;;27.60;26.79;97957.72;5037966;28;20330;-84
2023/06/28 02:44:21;;;;;;;;;;;;;;;27.61;26.16;97950.81;5041548;28;19971;-84
2023/06/28 02:46:47;;;;;;;;;;;;;;;27.80;25.96;97957.34;5044285;28;20011;-84
2023/06/28 02:49:13;;;;;;;;;;;;;;;27.85;26.17;97954.72;5042393;28;19918;-84
2023/06/28 02:51:39;;;;;;;;;;;;;;;27.87;26.27;97954.22;5043020;28;19921;-87
2023/06/28 02:54:05;;;;;;;;;;;;;;;27.85;26.17;97963.19;5041217;28;19925;-88
2023/06/28 02:56:31;;;;;;;;;;;;;;;27.69;26.09;97954.16;5040141;28;19991;-87
2023/06/28 02:58:57;;;;;;;;;;;;;;;27.59;26.27;97955.34;5041337;28;19967;-86
2023/06/28 03:01:23;;;;;;;;;;;;;;;27.46;26.43;97960.28;5038004;28;19963;-86
2023/06/28 03:03:49;;;;;;;;;;;;;;;27.40;26.53;97958.03;5046528;28;19921;-87
2023/06/28 03:06:15;;;;;;;;;;;;;;;27.54;26.33;97953.13;5055311;28;20015;-86
2023/06/28 03:08:41;;;;;;;;;;;;;;;27.74;26.11;97951.53;5055259;28;20012;-85
2023/06/28 03:11:08;;;;;;;;;;;;;;;27.86;26.44;97958.31;5054366;28;19917;-85
2023/06/28 03:13:34;;;;;;;;;;;;;;;27.81;25.90;97965.34;5048650;28;19921;-85
2023/06/28 03:16:00;;;;;;;;;;;;;;;27.82;26.05;97960.50;5036105;28;19921;-85
2023/06/28 03:18:26;;;;;;;;;;;;;;;27.94;26.32;97960.41;5049501;28;19925;-86
2023/06/28 03:20:52;;;;;;;;;;;;;;;27.95;26.53;97961.97;5054818;28;20372;-84
2023/06/28 03:23:19;;;;;;;;;;;;;;;28.12;25.80;97956.91;5054292;28;19921;-84
2023/06/28 03:25:45;;;;;;;;;;;;;;;28.15;26.03;97960.81;5054790;28;20428;-84
2023/06/28 03:28:11;;;;;;;;;;;;;;;28.29;25.77;97954.59;5055309;28;19921;-84
2023/06/28 03:30:37;;;;;;;;;;;;;;;28.52;25.81;97951.22;5055124;28;20303;-84
2023/06/28 03:33:03;;;;;;;;;;;;;;;28.49;26.20;97958.59;5054859;28;19917;-84
2023/06/28 03:35:29;;;;;;;;;;;;;;;28.98;25.97;97958.53;5053892;28;19925;-84
2023/06/28 03:37:56;;;;;;;;;;;;;;;29.20;25.66;97959.19;5053614;28;20296;-85
2023/06/28 03:40:22;;;;;;;;;;;;;;;29.09;26.57;97958.84;5051266;28;19917;-84
2023/06/28 03:42:48;;;;;;;;;;;;;;;29.41;26.34;97963.88;5041321;28;19952;-84
2023/06/28 03:45:14;;;;;;;;;;;;;;;29.86;26.16;97959.41;5037009;28;19921;-85
2023/06/28 03:47:41;;;;;;;;;;;;;;;30.19;26.60;97954.56;5044391;28;19968;-84
2023/06/28 03:50:07;;;;;;;;;;;;;;;30.55;26.34;97953.63;5051159;28;20339;-85
2023/06/28 03:52:33;;;;;;;;;;;;;;;30.88;26.79;97951.53;5045443;28;20104;-85
2023/06/28 03:54:59;;;;;;;;;;;;;;;31.43;25.03;97951.91;5044759;28;20004;-86
2023/06/28 03:57:25;;;;;;;;;;;;;;;31.79;25.87;97954.34;5048709;28;20006;-86
2023/06/28 03:59:51;;;;;;;;;;;;;;;32.29;23.93;97952.38;5053961;28;19927;-85
2023/06/28 04:02:17;;;;;;;;;;;;;;;32.64;22.66;97949.53;5046172;28;19967;-88
2023/06/28 04:04:43;;;;;;;;;;;;;;;32.84;23.30;97945.94;5047165;28;19917;-88
2023/06/28 04:07:09;;;;;;;;;;;;;;;33.04;22.22;97952.44;5034878;28;19925;-87
2023/06/28 04:09:35;;;;;;;;;;;;;;;33.18;23.89;97962.16;5044807;28;20369;-87
2023/06/28 04:12:01;;;;;;;;;;;;;;;33.41;22.94;97949.75;5043946;28;19921;-86
2023/06/28 04:14:27;;;;;;;;;;;;;;;33.58;22.78;97953.59;5046744;28;19975;-86
2023/06/28 04:16:53;;;;;;;;;;;;;;;33.84;22.50;97950.72;5044743;28;19925;-83
2023/06/28 04:19:19;;;;;;;;;;;;;;;34.09;22.36;97952.78;5041833;28;20301;-87
2023/06/28 04:21:45;;;;;;;;;;;;;;;34.23;22.16;97957.56;5046343;28;19917;-87
2023/06/28 04:24:11;;;;;;;;;;;;;;;34.37;21.83;97955.84;5043865;28;19921;-87
2023/06/28 04:26:37;;;;;;;;;;;;;;;34.48;21.92;97951.00;5048795;28;19916;-89
2023/06/28 04:29:03;;;;;;;;;;;;;;;34.62;21.63;97947.22;5045375;28;19921;-89
2023/06/28 04:31:30;;;;;;;;;;;;;;;34.77;20.81;97947.03;5047152;28;19950;-88
2023/06/28 04:33:56;;;;;;;;;;;;;;;34.79;21.27;97947.31;5046441;28;20044;-92
2023/06/28 04:36:25;;;;;;;;;;;;;;;34.88;21.53;97944.25;5046269;28;19921;-89
2023/06/28 04:38:52;;;;;;;;;;;;;;;34.70;20.96;97948.28;5039214;28;20003;-88
2023/06/28 04:41:19;;;;;;;;;;;;;;;34.58;20.44;97949.53;5046240;28;19976;-86
2023/06/28 04:43:45;;;;;;;;;;;;;;;34.64;21.38;97953.19;5049668;28;19970;-88
2023/06/28 04:46:11;;;;;;;;;;;;;;;34.45;20.27;97954.84;5047871;28;19932;-91
2023/06/28 04:48:39;;;;;;;;;;;;;;;34.01;20.64;97957.34;5048479;28;19927;-92
2023/06/28 04:51:05;;;;;;;;;;;;;;;33.90;20.90;97954.41;5046748;28;19967;-89
2023/06/28 04:53:31;;;;;;;;;;;;;;;33.91;20.65;97962.44;5041909;28;20444;-88
2023/06/28 04:56:00;;;;;;;;;;;;;;;33.99;20.82;97963.56;5042750;28;20035;-87
2023/06/28 04:58:26;;;;;;;;;;;;;;;33.54;20.40;97953.00;5042043;28;19925;-85
2023/06/28 05:00:56;;;;;;;;;;;;;;;32.52;20.95;97959.19;5039953;28;19924;-86
2023/06/28 05:03:26;;;;;;;;;;;;;;;32.63;21.45;97960.13;5048068;28;19920;-83
2023/06/28 05:05:53;;;;;;;;;;;;;;;32.32;22.24;97956.28;5045818;28;19956;-84
2023/06/28 05:08:19;;;;;;;;;;;;;;;32.26;22.46;97953.34;5049698;28;20451;-84
2023/06/28 05:10:45;;;;;;;;;;;;;;;31.42;22.80;97955.97;5049728;28;19916;-83
2023/06/28 05:13:11;;;;;;;;;;;;;;;31.07;23.28;97960.69;5052133;28;20402;-84
2023/06/28 05:15:37;;;;;;;;;;;;;;;30.76;24.80;97956.16;5047794;28;19957;-84
2023/06/28 05:18:04;;;;;;;;;;;;;;;30.88;23.38;97956.41;5046130;28;19940;-84
2023/06/28 05:20:31;;;;;;;;;;;;;;;30.98;23.91;97947.38;5048244;28;20406;-85
2023/06/28 05:23:12;;;;;;;;;;;;;;;29.97;24.78;97951.19;5040919;28;19921;-85
2023/06/28 05:25:42;;;;;;;;;;;;;;;30.18;24.54;97958.66;5049160;28;19948;-85
2023/06/28 05:28:10;;;;;;;;;;;;;;;29.90;24.74;97951.53;5041352;28;19964;-85
2023/06/28 05:30:36;;;;;;;;;;;;;;;29.93;25.10;97961.91;5045591;28;19921;-84
2023/06/28 05:33:02;;;;;;;;;;;;;;;28.38;27.05;97944.09;5049562;28;19967;-84
2023/06/28 05:35:29;;;;;;;;;;;;;;;28.91;26.69;97958.84;5052909;28;19921;-86
2023/06/28 05:37:55;;;;;;;;;;;;;;;28.99;26.98;97950.81;5051858;28;20011;-84
2023/06/28 05:40:21;;;;;;;;;;;;;;;28.98;26.67;97955.72;5050512;28;19923;-84
2023/06/28 05:42:47;;;;;;;;;;;;;;;30.10;26.44;97960.28;5052822;28;19925;-84
2023/06/28 05:45:13;;;;;;;;;;;;;;;30.82;24.13;97955.50;5053220;28;20356;-84
2023/06/28 05:47:39;;;;;;;;;;;;;;;30.88;25.09;97950.75;5053023;28;19920;-83
2023/06/28 05:50:05;;;;;;;;;;;;;;;30.70;24.69;97949.59;5047035;28;20017;-84
2023/06/28 05:52:31;;;;;;;;;;;;;;;29.34;27.02;97963.41;5040984;28;19916;-85
2023/06/28 05:54:57;;;;;;;;;;;;;;;29.79;26.67;97956.91;5049594;28;19936;-84
2023/06/28 05:57:23;;;;;;;;;;;;;;;29.94;26.61;97946.50;5047926;28;19921;-85
2023/06/28 05:59:49;;;;;;;;;;;;;;;30.63;25.43;97954.84;5050497;28;20011;-85
2023/06/28 06:02:15;;;;;;;;;;;;;;;30.53;25.43;97959.78;5049967;28;20385;-83
2023/06/28 06:04:41;;;;;;;;;;;;;;;29.40;27.08;97956.66;5052968;28;19913;-85
2023/06/28 06:07:07;;;;;;;;;;;;;;;30.75;24.98;97950.97;5056465;28;19974;-84
2023/06/28 06:09:33;;;;;;;;;;;;;;;29.96;25.99;97953.25;5055721;28;20315;-84
2023/06/28 06:11:59;;;;;;;;;;;;;;;30.88;25.09;97950.75;5053736;28;20304;-84
2023/06/28 06:14:25;;;;;;;;;;;;;;;30.77;25.04;97957.72;5044108;28;19921;-85
2023/06/28 06:16:54;;;;;;;;;;;;;;;29.25;26.84;97954.94;5048289;28;19925;-85
2023/06/28 06:19:20;;;;;;;;;;;;;;;29.65;26.22;97960.38;5053639;28;19921;-84
2023/06/28 06:21:46;;;;;;;;;;;;;;;29.74;25.90;97954.69;5052293;28;19917;-86
2023/06/28 06:24:12;;;;;;;;;;;;;;;30.30;25.33;97954.03;5054095;28;20402;-85
2023/06/28 06:26:38;;;;;;;;;;;;;;;30.46;25.19;97953.66;5055398;28;19917;-86
2023/06/28 06:29:04;;;;;;;;;;;;;;;30.11;24.92;97961.84;5052980;28;19921;-85
2023/06/28 06:31:30;;;;;;;;;;;;;;;29.51;25.49;97956.16;5052728;28;19931;-85
2023/06/28 06:34:00;;;;;;;;;;;;;;;29.50;25.78;97963.06;5056295;28;19917;-85
2023/06/28 06:36:29;;;;;;;;;;;;;;;29.61;25.98;97963.38;5056094;28;19916;-85
2023/06/28 06:38:56;;;;;;;;;;;;;;;29.69;25.52;97956.13;5054624;28;19916;-85
2023/06/28 06:41:22;;;;;;;;;;;;;;;30.38;25.35;97958.94;5055432;28;20447;-84
2023/06/28 06:43:51;;;;;;;;;;;;;;;30.36;24.73;97961.47;5056009;28;20284;-84
2023/06/28 06:46:20;;;;;;;;;;;;;;;30.35;24.84;97959.88;5050535;28;20308;-85
2023/06/28 06:48:47;;;;;;;;;;;;;;;30.46;24.65;97962.97;5040954;28;20031;-84
2023/06/28 06:51:13;;;;;;;;;;;;;;;30.49;24.67;97958.38;5036274;28;20027;-84
2023/06/28 06:53:39;;;;;;;;;;;;;;;30.76;24.57;97961.81;5052024;28;20347;-84
2023/06/28 06:56:05;;;;;;;;;;;;;;;29.80;25.70;97962.09;5055125;28;19967;-85
2023/06/28 06:58:31;;;;;;;;;;;;;;;29.80;26.04;97955.66;5052755;28;19965;-84
2023/06/28 07:00:57;;;;;;;;;;;;;;;29.72;25.93;97954.38;5041817;28;19921;-85
2023/06/28 07:03:24;;;;;;;;;;;;;;;30.26;25.13;97942.91;5044326;28;19968;-85
2023/06/28 07:05:50;;;;;;;;;;;;;;;30.23;25.94;97943.84;5039531;28;19921;-84
2023/06/28 07:08:17;;;;;;;;;;;;;;;30.93;25.31;97941.56;5045604;28;19958;-85
2023/06/28 07:10:43;;;;;;;;;;;;;;;31.02;24.66;97944.34;5053293;28;19935;-84
2023/06/28 07:13:10;;;;;;;;;;;;;;;31.36;24.24;97941.69;5054150;28;19920;-84
2023/06/28 07:15:36;;;;;;;;;;;;;;;30.31;25.79;97938.63;5055710;28;19920;-86
2023/06/28 07:18:03;;;;;;;;;;;;;;;30.88;25.58;97942.25;5052961;28;20292;-85
2023/06/28 07:20:29;;;;;;;;;;;;;;;30.78;24.89;97944.34;5052536;28;19921;-86
2023/06/28 07:22:55;;;;;;;;;;;;;;;31.54;24.46;97943.59;5054875;28;20016;-85
2023/06/28 07:25:21;;;;;;;;;;;;;;;31.58;25.38;97947.00;5054878;28;19921;-85
2023/06/28 07:27:47;;;;;;;;;;;;;;;32.11;23.47;97944.09;5051634;28;19921;-85
2023/06/28 07:30:13;;;;;;;;;;;;;;;32.00;23.94;97941.03;5054861;28;19973;-84
2023/06/28 07:32:39;;;;;;;;;;;;;;;32.06;23.63;97953.28;5054802;28;19925;-85
2023/06/28 07:35:05;;;;;;;;;;;;;;;31.42;23.81;97955.97;5054612;28;20257;-84
2023/06/28 07:37:32;;;;;;;;;;;;;;;31.62;24.08;97953.28;5046426;28;19921;-84
2023/06/28 07:39:58;;;;;;;;;;;;;;;31.06;24.30;97942.13;5034767;28;19921;-85
2023/06/28 07:42:24;;;;;;;;;;;;;;;30.88;24.68;97933.72;5035046;28;19920;-85
2023/06/28 07:44:50;;;;;;;;;;;;;;;30.88;24.12;97934.53;5034965;28;20505;-85
2023/06/28 07:47:16;;;;;;;;;;;;;;;31.51;24.24;97944.56;5034796;28;20369;-85
2023/06/28 07:49:42;;;;;;;;;;;;;;;31.97;24.49;97933.53;5049868;28;19947;-83
2023/06/28 07:52:09;;;;;;;;;;;;;;;32.44;23.64;97932.44;5054036;28;19928;-85
2023/06/28 07:54:35;;;;;;;;;;;;;;;32.00;24.01;97933.31;5047458;28;19947;-85
2023/06/28 07:57:01;;;;;;;;;;;;;;;31.35;24.50;97936.47;5047088;28;19960;-84
2023/06/28 07:59:27;;;;;;;;;;;;;;;31.22;24.75;97936.00;5044334;28;19921;-86
2023/06/28 08:01:53;;;;;;;;;;;;;;;31.83;25.56;97934.28;5043946;28;19921;-83
2023/06/28 08:04:20;;;;;;;;;;;;;;;32.46;24.39;97930.66;5049325;28;19921;-86
2023/06/28 08:06:46;;;;;;;;;;;;;;;32.91;23.39;97936.97;5049805;28;19917;-86
2023/06/28 08:09:13;;;;;;;;;;;;;;;32.75;23.54;97935.47;5053822;28;20007;-87
2023/06/28 08:11:39;;;;;;;;;;;;;;;30.94;25.05;97938.28;5051437;28;19928;-86
2023/06/28 08:14:05;;;;;;;;;;;;;;;31.72;25.21;97923.50;5053410;28;19920;-88
2023/06/28 08:16:31;;;;;;;;;;;;;;;31.76;25.65;97923.31;5054360;28;19929;-88
2023/06/28 08:18:57;;;;;;;;;;;;;;;32.54;24.12;97929.00;5053774;28;20067;-87
2023/06/28 08:21:23;;;;;;;;;;;;;;;32.39;23.87;97928.25;5053795;28;20419;-88
2023/06/28 08:23:49;;;;;;;;;;;;;;;32.67;23.99;97925.81;5048892;28;19944;-87
2023/06/28 08:26:15;;;;;;;;;;;;;;;32.35;24.32;97913.44;5049522;28;20430;-86
2023/06/28 08:28:41;;;;;;;;;;;;;;;32.33;24.01;97918.84;5046531;28;19928;-85
2023/06/28 08:31:08;;;;;;;;;;;;;;;32.08;24.23;97913.81;5043514;28;19925;-86
2023/06/28 08:33:33;;;;;;;;;;;;;;;32.21;24.80;97917.09;5048446;28;20284;-86
2023/06/28 08:35:59;;;;;;;;;;;;;;;32.19;24.34;97908.28;5046911;28;19921;-90
2023/06/28 08:38:25;;;;;;;;;;;;;;;32.86;24.04;97907.16;5038697;28;19968;-88
2023/06/28 08:40:52;;;;;;;;;;;;;;;33.30;22.63;97904.09;5035058;28;20336;-87
2023/06/28 08:43:19;;;;;;;;;;;;;;;33.54;22.92;97901.75;5046820;28;20003;-88
2023/06/28 08:45:45;;;;;;;;;;;;;;;33.70;23.35;97908.91;5039108;28;19929;-91
2023/06/28 08:48:14;;;;;;;;;;;;;;;33.67;22.75;97898.53;5047080;28;19928;-87
2023/06/28 08:50:40;;;;;;;;;;;;;;;32.64;23.45;97901.22;5041584;28;19928;-87
2023/06/28 08:53:09;;;;;;;;;;;;;;;32.18;23.97;97900.28;5037980;28;20011;-87
2023/06/28 08:55:39;;;;;;;;;;;;;;;31.91;24.05;97887.94;5045333;28;20008;-88
2023/06/28 08:58:05;;;;;;;;;;;;;;;31.28;24.82;97895.09;5046833;28;19920;-87
2023/06/28 09:00:31;;;;;;;;;;;;;;;32.00;23.89;97890.69;5052174;28;19928;-88
2023/06/28 09:02:57;;;;;;;;;;;;;;;32.72;23.58;97882.44;5042774;28;19980;-87
2023/06/28 09:05:23;;;;;;;;;;;;;;;32.16;23.12;97883.69;5049541;28;19928;-87
2023/06/28 09:07:51;;;;;;;;;;;;;;;32.71;22.96;97872.34;5050970;28;19929;-87
2023/06/28 09:10:17;;;;;;;;;;;;;;;32.27;23.13;97883.09;5052379;28;19917;-89
2023/06/28 09:12:44;;;;;;;;;;;;;;;31.81;24.04;97880.06;5044076;28;19928;-85
2023/06/28 09:15:11;;;;;;;;;;;;;;;31.84;23.69;97882.69;5036328;28;20018;-86
2023/06/28 09:17:37;;;;;;;;;;;;;;;32.22;23.38;97872.44;5051458;28;20423;-86
2023/06/28 09:20:19;;;;;;;;;;;;;;;32.64;22.64;97878.47;5034131;28;19913;-88
2023/06/28 09:23:11;;;;;;;;;;;;;;;32.07;22.78;97878.94;5048550;28;19982;-85
2023/06/28 09:25:41;;;;;;;;;;;;;;;31.54;23.74;97875.47;5052095;28;19966;-85
2023/06/28 09:28:08;;;;;;;;;;;;;;;31.61;23.30;97875.06;5051923;28;19924;-85
2023/06/28 09:30:35;;;;;;;;;;;;;;;31.16;24.48;97869.84;5051561;28;20384;-85
2023/06/28 09:33:03;;;;;;;;;;;;;;;32.67;24.15;97863.25;5041246;28;20026;-85
2023/06/28 09:35:29;;;;;;;;;;;;;;;33.11;22.13;97857.31;5050373;28;19921;-85
2023/06/28 09:37:58;;;;;;;;;;;;;;;33.46;22.88;97860.78;5034534;28;20476;-84
2023/06/28 09:40:24;;;;;;;;;;;;;;;32.78;22.49;97852.00;5039542;28;19924;-85
2023/06/28 09:42:51;;;;;;;;;;;;;;;32.79;23.02;97859.28;5052205;28;19986;-86
2023/06/28 09:45:23;;;;;;;;;;;;;;;32.56;22.89;97851.72;5051299;28;19943;-84
2023/06/28 09:48:02;;;;;;;;;;;;;;;33.34;23.10;97854.19;5052560;28;20372;-84
2023/06/28 09:50:39;;;;;;;;;;;;;;;33.73;22.33;97843.16;5049285;28;20434;-84
2023/06/28 09:53:08;;;;;;;;;;;;;;;32.92;21.61;97844.66;5039695;28;20023;-85
2023/06/28 09:55:36;;;;;;;;;;;;;;;31.54;22.74;97844.25;5037125;28;20445;-84
2023/06/28 09:58:03;;;;;;;;;;;;;;;30.99;23.62;97852.53;5040403;28;19982;-84
2023/06/28 10:00:31;;;;;;;;;;;;;;;31.53;22.81;97847.59;5046131;28;19943;-86
2023/06/28 10:02:58;;;;;;;;;;;;;;;30.38;24.52;97844.81;5039918;28;19983;-83
2023/06/28 10:05:25;;;;;;;;;;;;;;;30.37;24.47;97846.06;5036833;28;19924;-85
2023/06/28 10:07:52;;;;;;;;;;;;;;;31.64;23.51;97837.19;5051689;28;19932;-87
2023/06/28 10:10:18;;;;;;;;;;;;;;;32.11;23.86;97836.13;5050738;28;19921;-85
2023/06/28 10:12:44;;;;;;;;;;;;;;;32.53;22.12;97836.47;5036868;28;19940;-84
2023/06/28 10:15:12;;;;;;;;;;;;;;;33.15;22.26;97829.41;5046020;28;19940;-84
2023/06/28 10:17:38;;;;;;;;;;;;;;;33.48;21.58;97835.44;5048386;28;20380;-84
2023/06/28 10:20:06;;;;;;;;;;;;;;;33.28;21.79;97827.72;5037239;28;19924;-85
2023/06/28 10:22:33;;;;;;;;;;;;;;;33.67;21.71;97816.72;5037366;28;20004;-84
2023/06/28 10:25:01;;;;;;;;;;;;;;;32.91;22.44;97826.81;5049087;28;20011;-85
2023/06/28 10:27:27;;;;;;;;;;;;;;;31.67;22.44;97815.56;5053060;28;19924;-84
2023/06/28 10:29:54;;;;;;;;;;;;;;;32.09;21.68;97830.16;5036938;28;19952;-85
2023/06/28 10:32:20;;;;;;;;;;;;;;;31.62;21.66;97807.72;5051334;28;19959;-85
2023/06/28 10:34:47;;;;;;;;;;;;;;;32.15;21.64;97825.34;5041053;28;19975;-86
2023/06/28 10:37:18;;;;;;;;;;;;;;;30.81;24.00;97826.38;5049976;28;19921;-84
2023/06/28 10:39:44;;;;;;;;;;;;;;;31.95;22.85;97814.69;5045279;28;19920;-85
2023/06/28 10:42:10;;;;;;;;;;;;;;;33.11;22.10;97823.97;5045771;28;20377;-85
2023/06/28 10:44:49;;;;;;;;;;;;;;;31.53;22.67;97833.38;5047982;28;19921;-85
2023/06/28 10:47:16;;;;;;;;;;;;;;;30.84;22.97;97851.69;5051196;28;20738;-83
2023/06/28 10:49:42;;;;;;;;;;;;;;;29.57;24.64;97863.72;5045538;28;19925;-85
2023/06/28 10:52:12;;;;;;;;;;;;;;;28.84;26.64;97896.19;5051654;28;19927;-85
2023/06/28 10:54:38;;;;;;;;;;;;;;;27.73;28.25;97889.91;5042480;28;19917;-86
2023/06/28 10:57:10;;;;;;;;;;;;;;;28.11;27.80;97900.91;5048066;28;19929;-86
2023/06/28 10:59:40;;;;;;;;;;;;;;;27.87;30.25;97912.69;5048204;28;19936;-84
2023/06/28 11:02:06;;;;;;;;;;;;;;;27.26;29.32;97915.47;5047529;28;19925;-84
2023/06/28 11:04:32;;;;;;;;;;;;;;;28.02;29.69;97927.06;5042409;28;19921;-84
2023/06/28 11:07:07;;;;;;;;;;;;;;;28.50;29.16;97928.28;5040586;28;20269;-85
2023/06/28 11:09:34;;;;;;;;;;;;;;;29.65;27.86;97926.41;5046179;28;19927;-84
2023/06/28 11:12:00;;;;;;;;;;;;;;;29.72;27.49;97920.44;5035450;28;19921;-84
2023/06/28 11:14:30;;;;;;;;;;;;;;;30.12;27.38;97918.09;5037674;28;19921;-85
2023/06/28 11:17:07;;;;;;;;;;;;;;;30.46;27.25;97922.50;5043937;28;20416;-85
2023/06/28 11:19:33;;;;;;;;;;;;;;;31.14;26.62;97914.94;5038599;28;20276;-85
2023/06/28 11:22:00;;;;;;;;;;;;;;;31.63;25.72;97909.41;5047111;28;19917;-85
2023/06/28 11:24:29;;;;;;;;;;;;;;;31.91;25.61;97909.88;5054521;28;19920;-85
2023/06/28 11:26:55;;;;;;;;;;;;;;;32.37;26.16;97912.97;5054933;28;19924;-86
2023/06/28 11:29:21;;;;;;;;;;;;;;;32.79;25.18;97904.00;5040290;28;19921;-86
2023/06/28 11:31:50;;;;;;;;;;;;;;;32.79;24.87;97898.31;5049693;28;20012;-86
2023/06/28 11:34:17;;;;;;;;;;;;;;;33.08;25.43;97889.59;5050531;28;19921;-88
2023/06/28 11:36:43;;;;;;;;;;;;;;;33.22;24.84;97886.66;5042671;28;19920;-89
2023/06/28 11:39:13;;;;;;;;;;;;;;;33.59;26.07;97886.00;5035364;28;20421;-88
2023/06/28 11:41:39;;;;;;;;;;;;;;;34.41;25.30;97880.19;5039220;28;19924;-90
2023/06/28 11:44:06;;;;;;;;;;;;;;;34.59;22.54;97879.00;5039085;28;19920;-89
2023/06/28 11:46:33;;;;;;;;;;;;;;;34.62;22.26;97875.13;5044792;28;19932;-91
2023/06/28 11:49:00;;;;;;;;;;;;;;;34.90;24.60;97872.38;5044123;28;20006;-89
2023/06/28 11:51:26;;;;;;;;;;;;;;;34.60;23.81;97858.53;5037196;28;20387;-88
2023/06/28 11:53:55;;;;;;;;;;;;;;;34.37;23.65;97862.53;5050542;28;19928;-89
2023/06/28 11:56:41;;;;;;;;;;;;;;;33.59;22.66;97857.53;5055538;28;19928;-86
2023/06/28 11:59:17;;;;;;;;;;;;;;;33.74;24.29;97850.44;5047884;28;19917;-87
2023/06/28 12:01:43;;;;;;;;;;;;;;;33.75;23.38;97854.06;5052967;28;19921;-88
2023/06/28 12:04:17;;;;;;;;;;;;;;;32.78;22.08;97849.16;5053264;28;19917;-88
2023/06/28 12:06:43;;;;;;;;;;;;;;;32.51;23.97;97858.16;5052411;28;19928;-90
2023/06/28 12:09:16;;;;;;;;;;;;;;;31.75;24.44;97845.88;5049833;28;19925;-90
2023/06/28 12:11:50;;;;;;;;;;;;;;;32.72;22.54;97839.81;5047699;28;20440;-89
2023/06/28 12:14:16;;;;;;;;;;;;;;;31.95;23.49;97839.47;5050667;28;20376;-88
2023/06/28 12:16:45;;;;;;;;;;;;;;;33.07;22.57;97839.69;5035083;28;19925;-88
2023/06/28 12:19:14;;;;;;;;;;;;;;;32.80;22.04;97851.50;5048458;28;19929;-89
2023/06/28 12:21:40;;;;;;;;;;;;;;;32.63;22.43;97852.09;5049035;28;20011;-88
2023/06/28 12:24:16;;;;;;;;;;;;;;;31.26;25.94;97860.75;5050806;28;19952;-89
2023/06/28 12:26:47;;;;;;;;;;;;;;;30.68;29.38;97871.97;5037078;28;19925;-88
2023/06/28 12:29:13;;;;;;;;;;;;;;;29.94;28.93;97881.38;5040849;28;19929;-88
2023/06/28 12:31:44;;;;;;;;;;;;;;;29.74;27.71;97869.78;5050645;28;19978;-88
2023/06/28 12:34:10;;;;;;;;;;;;;;;29.89;26.41;97882.81;5050731;28;19927;-86
2023/06/28 12:36:37;;;;;;;;;;;;;;;30.06;24.83;97883.19;5035343;28;20019;-88
2023/06/28 12:39:03;;;;;;;;;;;;;;;29.97;26.45;97881.19;5045030;28;19991;-89
2023/06/28 12:41:29;;;;;;;;;;;;;;;29.06;25.16;97896.78;5047989;28;20355;-90
2023/06/28 12:43:56;;;;;;;;;;;;;;;29.51;25.85;97898.78;5043768;28;19921;-89
2023/06/28 12:46:23;;;;;;;;;;;;;;;30.35;25.38;97886.22;5044490;28;20003;-87